Oku, Shohei
JapanManBorn 19872018 – 2026Runner id 1136121
Events
27
2018 – 2026
Best pace
10.762
km/h · 2026
Best finish
3rd
of 394 · 2026
Distance raced
2,388
km · splits not double-counted
Pace over time
km/h · higher is faster
Pace over time: 27 races from 2018 to 2026, ranging from 4.34 to 11.02 kilometres per hour, where higher is faster. A second, age-graded series is drawn above it; the gap between the two is the age credit.
- Actual pace
- Age-graded pace
Results
| Date | Event | Distance | Result | Pace km/h | Placing |
|---|---|---|---|---|---|
| 2018-06-30 | 45km | 6:42:07 h | 6.714 | 77/357 | |
| 2018-07-14 | 65km | 11:47:17 h | 5.514 | 51/240 | |
| 2019-06-29 | 80km | 13:14:22 h | 6.043 | 115/395 | |
| 2019-07-13 | 65km | 10:20:45 h | 6.283 | 69/403 | |
| 2021-07-23 | 65km | 10:40:23 h | 6.090 | 7/60 | |
| 2021-12-12 | Izu Trail JourneyJapan | 69.1km | 9:26:28 h | 7.319 | 223/1267 |
| 2022-04-22 | 167km | 27:46:27 h | 6.013 | 172/1470 | |
| 2022-12-29 | 130km | 27:58:09 h | 4.648 | 43/92 | |
| 2023-04-21 | 167km | 30:27:38 h | 5.483 | 195/1687 | |
| 2023-10-01 | Legendary Trail Series KMK50Thailand | 50km | 7:57:47 h | 6.279 | 33/177 |
| 2023-12-09 | 50km | 7:21:15 h | 6.799 | 126/1289 | |
| 2024-01-20 | 50km | 6:10:16 h | 8.102 | 18/214 | |
| 2024-07-14 | 50km | 10:05:00 h | 4.959 | 37/140 | |
| 2024-09-07 | Ultra-Trail Khao EtoThailand | 100km | 17:45:13 h | 5.633 | 12/150 |
| 2024-12-07 | 93km | 18:40:44 h | 4.979 | 190/787 | |
| 2025-01-18 | 50km | 5:32:45 h | 9.016 | 10/120 | |
| 2025-05-17 | Janda Baik Ultra 100 KmMalaysia | 100km | 22:59:39 h | 4.349 | 9/51 |
| 2025-06-07 | Phuket 100K Ultra MarathonThailand | 100km | 9:37:10 h | 10.396 | 10/438 |
| 2025-08-09 | CM6 Run - CM5 100 KmThailand | 100km | 21:47:44 h | 4.588 | 29/152 |
| 2025-09-20 | 70km | 12:36:40 h | 5.551 | 18/289 | |
| 2025-09-27 | Chiangmai 12 Hr Challenge NightThailand | 12h | 110.594 km | 9.216 | 1/32 |
| 2025-11-22 | 100km | 9:47:45 h | 10.208 | 2/50 | |
| 2025-12-05 | 100mi | 37:03:22 h | 4.343 | 115/370 | |
| 2026-06-06 | Phuket 100K Ultra MarathonThailand | 100km | 9:31:33 h | 10.498 | 3/394 |
| 2026-06-27 | 50km | 8:05:19 h | 6.182 | 24/217 | |
| 2026-07-18 | Cameron 100 km Ultra TrailMalaysia | 100km | 18:12:59 h | 5.490 | 9/221 |
| 2026-08-02 | 100km | 9:17:30 h | 10.762 | 6/351 |